createdAt,value
2023-01-06T00:01:21.325Z,98596.08
2023-01-06T00:03:57.461Z,98601.25
2023-01-06T00:06:31.926Z,98610.84
2023-01-06T00:09:07.466Z,98608.52
2023-01-06T00:11:40.533Z,98619.75
2023-01-06T00:14:13.774Z,98617.60
2023-01-06T00:16:46.921Z,98617.79
2023-01-06T00:19:19.972Z,98622.59
2023-01-06T00:21:52.804Z,98622.95
2023-01-06T00:24:25.989Z,98624.34
2023-01-06T00:26:59.167Z,98633.94
2023-01-06T00:29:32.356Z,98627.89
2023-01-06T00:32:05.802Z,98628.80
2023-01-06T00:34:38.891Z,98633.56
2023-01-06T00:37:12.248Z,98634.47
2023-01-06T00:39:45.275Z,98639.95
2023-01-06T00:42:18.471Z,98640.29
2023-01-06T00:44:52.021Z,98642.95
2023-01-06T00:47:26.292Z,98639.22
2023-01-06T00:50:00.573Z,98647.02
2023-01-06T00:52:34.399Z,98651.97
2023-01-06T00:55:09.594Z,98664.73
2023-01-06T00:57:43.147Z,98659.03
2023-01-06T01:00:18.616Z,98668.23
2023-01-06T01:02:51.814Z,98667.87
2023-01-06T01:05:24.895Z,98676.53
2023-01-06T01:07:57.954Z,98678.84
2023-01-06T01:10:30.988Z,98678.84
2023-01-06T01:13:04.190Z,98678.10
2023-01-06T01:15:37.343Z,98697.06
2023-01-06T01:18:10.579Z,98699.33
2023-01-06T01:20:45.144Z,98698.64
2023-01-06T01:23:19.176Z,98702.58
2023-01-06T01:25:53.946Z,98705.36
2023-01-06T01:28:26.814Z,98712.27
2023-01-06T01:31:03.103Z,98716.84
2023-01-06T01:33:36.443Z,98721.44
2023-01-06T01:36:11.965Z,98721.95
2023-01-06T01:38:45.519Z,98726.89
2023-01-06T01:41:20.977Z,98731.64
2023-01-06T01:43:56.354Z,98733.58
2023-01-06T01:46:32.580Z,98733.91
2023-01-06T01:49:08.419Z,98745.91
2023-01-06T01:51:44.557Z,98733.09
2023-01-06T01:54:20.377Z,98751.77
2023-01-06T01:56:56.199Z,98756.84
2023-01-06T01:59:32.110Z,98764.28
2023-01-06T02:02:05.357Z,98765.70
2023-01-06T02:04:41.381Z,98765.13
2023-01-06T02:07:15.909Z,98769.72
2023-01-06T02:09:53.878Z,98780.50
2023-01-06T02:12:27.297Z,98776.06
2023-01-06T02:15:00.399Z,98777.98
2023-01-06T02:18:03.254Z,98785.34
2023-01-06T02:20:47.633Z,98779.63
2023-01-06T02:24:03.658Z,98780.54
2023-01-06T02:27:12.933Z,98786.69
2023-01-06T02:30:23.097Z,98792.16
2023-01-06T02:33:03.382Z,98801.88
2023-01-06T02:35:51.440Z,98805.08
2023-01-06T02:38:31.989Z,98815.48
2023-01-06T02:41:14.429Z,98815.22
2023-01-06T02:43:56.671Z,98823.15
2023-01-06T02:46:36.020Z,98821.36
2023-01-06T02:49:15.127Z,98825.63
2023-01-06T02:51:51.354Z,98829.88
2023-01-06T02:54:28.797Z,98833.45
2023-01-06T02:57:05.824Z,98838.19
2023-01-06T02:59:42.332Z,98829.70
2023-01-06T03:02:17.875Z,98836.22
2023-01-06T03:04:53.250Z,98832.87
2023-01-06T03:07:29.104Z,98841.67
2023-01-06T03:10:05.050Z,98843.78
2023-01-06T03:12:40.933Z,98849.23
2023-01-06T03:15:14.989Z,98842.49
2023-01-06T03:17:49.257Z,98854.31
2023-01-06T03:20:23.180Z,98855.00
2023-01-06T03:22:56.197Z,98860.27
2023-01-06T03:25:29.477Z,98864.42
2023-01-06T03:28:03.145Z,98860.86
2023-01-06T03:30:40.823Z,98871.66
2023-01-06T03:33:16.949Z,98879.96
2023-01-06T03:39:00.245Z,98875.48
2023-01-06T03:41:56.094Z,98879.58
2023-01-06T03:44:33.412Z,98884.12
2023-01-06T03:47:10.641Z,98883.05
2023-01-06T03:49:48.573Z,98894.02
2023-01-06T03:52:25.466Z,98891.55
2023-01-06T03:55:01.475Z,98898.97
2023-01-06T03:57:38.077Z,98900.19
2023-01-06T04:00:16.694Z,98899.77
2023-01-06T04:02:51.740Z,98907.00
2023-01-06T04:05:28.968Z,98910.16
2023-01-06T04:08:03.513Z,98915.11
2023-01-06T04:10:37.011Z,98913.73
2023-01-06T04:13:10.100Z,98914.42
2023-01-06T04:15:44.391Z,98917.89
2023-01-06T04:18:17.454Z,98927.59
2023-01-06T04:20:50.710Z,98927.41
2023-01-06T04:23:25.159Z,98930.56
2023-01-06T04:25:58.237Z,98942.05
2023-01-06T04:28:32.892Z,98942.55
2023-01-06T04:31:06.243Z,98939.66
2023-01-06T04:33:39.965Z,98944.41
2023-01-06T04:36:15.485Z,98940.65
2023-01-06T04:38:50.260Z,98949.09
2023-01-06T04:41:23.396Z,98962.17
2023-01-06T04:43:58.066Z,98966.39
2023-01-06T04:46:31.345Z,98963.92
2023-01-06T04:49:04.220Z,98972.33
2023-01-06T04:51:37.419Z,98982.31
2023-01-06T04:54:10.473Z,98978.55
2023-01-06T04:56:43.707Z,98973.41
2023-01-06T04:59:17.012Z,98984.66
2023-01-06T05:01:50.162Z,98990.09
2023-01-06T05:04:23.702Z,98992.56
2023-01-06T05:06:56.921Z,98996.02
2023-01-06T05:09:30.198Z,98996.02
2023-01-06T05:12:03.284Z,98999.20
2023-01-06T05:14:36.362Z,99004.83
2023-01-06T05:17:09.477Z,99001.67
2023-01-06T05:19:43.163Z,99003.04
2023-01-06T05:22:16.390Z,99006.48
2023-01-06T05:24:49.620Z,99004.98
2023-01-06T05:27:22.672Z,99009.73
2023-01-06T05:29:55.909Z,99007.27
2023-01-06T05:32:29.035Z,99010.61
2023-01-06T05:35:02.271Z,99010.41
2023-01-06T05:37:35.950Z,99008.23
2023-01-06T05:40:11.960Z,99007.36
2023-01-06T05:42:45.088Z,99020.68
2023-01-06T05:45:18.395Z,99017.30
2023-01-06T05:47:51.661Z,99023.34
2023-01-06T05:50:24.796Z,99033.23
2023-01-06T05:52:59.873Z,99035.55
2023-01-06T05:55:32.683Z,99043.17
2023-01-06T05:58:05.867Z,99039.53
2023-01-06T06:00:38.826Z,99051.89
2023-01-06T06:03:11.882Z,99055.27
2023-01-06T06:05:45.189Z,99056.15
2023-01-06T06:08:18.385Z,99057.45
2023-01-06T06:10:51.467Z,99060.32
2023-01-06T06:13:24.618Z,99065.46
2023-01-06T06:16:07.426Z,99068.16
2023-01-06T06:18:43.050Z,99070.83
2023-01-06T06:21:18.071Z,99073.50
2023-01-06T06:23:52.590Z,99079.95
2023-01-06T06:26:25.975Z,99084.41
2023-01-06T06:28:59.129Z,99086.80
2023-01-06T06:31:32.430Z,99086.94
2023-01-06T06:34:06.241Z,99085.87
2023-01-06T06:36:39.225Z,99097.62
2023-01-06T06:39:12.562Z,99101.08
2023-01-06T06:41:45.638Z,99094.37
2023-01-06T06:44:18.704Z,99095.22
2023-01-06T06:46:51.893Z,99104.33
2023-01-06T06:49:25.109Z,99107.50
2023-01-06T06:51:58.384Z,99109.81
2023-01-06T06:54:31.595Z,99104.00
2023-01-06T06:57:04.823Z,99099.91
2023-01-06T06:59:37.959Z,99095.66
2023-01-06T07:02:11.564Z,99102.84
2023-01-06T07:04:44.745Z,99101.92
2023-01-06T07:07:17.889Z,99086.77
2023-01-06T07:09:51.339Z,99096.39
2023-01-06T07:12:24.503Z,99106.91
2023-01-06T07:14:57.659Z,99099.73
2023-01-06T07:17:31.113Z,99107.69
2023-01-06T07:20:04.291Z,99108.14
2023-01-06T07:22:40.494Z,99112.31
2023-01-06T07:25:13.718Z,99114.73
2023-01-06T07:27:47.035Z,99110.31
2023-01-06T07:30:20.220Z,99114.32
2023-01-06T07:32:54.125Z,99114.90
2023-01-06T07:35:27.063Z,99120.48
2023-01-06T07:38:04.760Z,99129.59
2023-01-06T07:40:38.115Z,99132.75
2023-01-06T07:43:12.414Z,99141.70
2023-01-06T07:45:47.096Z,99144.09
2023-01-06T07:48:20.147Z,99144.30
2023-01-06T07:50:53.233Z,99156.98
2023-01-06T07:53:26.219Z,99161.59
2023-01-06T07:55:59.266Z,99160.56
2023-01-06T07:58:32.729Z,99162.37
2023-01-06T08:01:09.994Z,99157.39
2023-01-06T08:03:43.387Z,99159.94
2023-01-06T08:06:16.593Z,99155.60
2023-01-06T08:08:49.678Z,99155.54
2023-01-06T08:11:22.871Z,99159.64
2023-01-06T08:13:56.026Z,99166.13
2023-01-06T08:16:29.494Z,99160.42
2023-01-06T08:19:04.309Z,99161.55
2023-01-06T08:21:37.496Z,99172.27
2023-01-06T08:24:11.508Z,99167.80
2023-01-06T08:26:44.974Z,99165.11
2023-01-06T08:29:18.293Z,99165.33
2023-01-06T08:31:56.906Z,99160.58
2023-01-06T08:37:06.687Z,99157.13
2023-01-06T08:39:39.792Z,99167.31
2023-01-06T08:42:13.066Z,99161.67
2023-01-06T08:44:46.671Z,99163.86
2023-01-06T08:47:19.872Z,99164.40
2023-01-06T08:49:52.946Z,99167.61
2023-01-06T08:52:26.166Z,99170.04
2023-01-06T08:55:00.418Z,99175.13
2023-01-06T08:57:34.964Z,99181.22
2023-01-06T09:00:10.499Z,99185.23
2023-01-06T09:02:43.642Z,99198.03
2023-01-06T09:05:17.835Z,99181.07
2023-01-06T09:07:51.267Z,99188.23
2023-01-06T09:10:24.457Z,99195.47
2023-01-06T09:12:57.664Z,99189.67
2023-01-06T09:15:31.003Z,99200.97
2023-01-06T09:18:04.350Z,99207.09
2023-01-06T09:20:37.670Z,99210.85
2023-01-06T09:23:10.850Z,99209.05
2023-01-06T09:25:43.893Z,99200.73
2023-01-06T09:28:16.907Z,99204.33
2023-01-06T09:30:50.548Z,99222.66
2023-01-06T09:33:23.827Z,99223.29
2023-01-06T09:35:56.986Z,99228.61
2023-01-06T09:38:30.673Z,99213.19
2023-01-06T09:41:18.929Z,99208.01
2023-01-06T09:43:54.869Z,99189.11
2023-01-06T09:46:30.791Z,99199.66
2023-01-06T09:49:10.294Z,99202.64
2023-01-06T09:51:44.759Z,99199.19
2023-01-06T09:54:21.494Z,99210.73
2023-01-06T09:56:57.909Z,99210.36
2023-01-06T09:59:34.059Z,99212.97
2023-01-06T10:02:11.988Z,99216.98
2023-01-06T10:04:45.275Z,99209.96
2023-01-06T10:07:21.678Z,99217.34
2023-01-06T10:10:01.673Z,99207.18
2023-01-06T10:12:42.275Z,99199.66
2023-01-06T10:15:20.380Z,99206.59
2023-01-06T10:18:04.889Z,99222.14
2023-01-06T10:20:59.895Z,99220.38
2023-01-06T10:23:46.132Z,99222.63
2023-01-06T10:26:23.714Z,99224.01
2023-01-06T10:28:59.662Z,99221.73
2023-01-06T10:31:37.251Z,99216.16
2023-01-06T10:34:10.334Z,99212.53
2023-01-06T10:36:45.951Z,99216.98
2023-01-06T10:39:21.768Z,99226.71
2023-01-06T10:42:20.653Z,99220.32
2023-01-06T10:44:53.908Z,99223.36
2023-01-06T10:47:30.127Z,99231.65
2023-01-06T10:50:03.894Z,99241.03
2023-01-06T10:52:38.146Z,99244.61
2023-01-06T10:55:17.320Z,99237.13
2023-01-06T10:57:51.285Z,99243.96
2023-01-06T11:00:26.950Z,99243.71
2023-01-06T11:03:19.693Z,99240.80
2023-01-06T11:05:40.981Z,99247.96
2023-01-06T11:08:17.207Z,99250.80
2023-01-06T11:10:54.286Z,99248.56
2023-01-06T11:13:32.480Z,99250.95
2023-01-06T11:16:09.298Z,99247.43
2023-01-06T11:18:42.970Z,99250.95
2023-01-06T11:21:17.055Z,99260.00
2023-01-06T11:23:51.142Z,99255.38
2023-01-06T11:26:25.379Z,99260.34
2023-01-06T11:29:00.192Z,99260.37
2023-01-06T11:31:33.698Z,99266.15
2023-01-06T11:34:06.905Z,99273.92
2023-01-06T11:36:42.941Z,99285.69
2023-01-06T11:39:19.045Z,99285.34
2023-01-06T11:41:55.155Z,99285.70
2023-01-06T11:44:33.516Z,99290.30
2023-01-06T11:47:09.988Z,99294.02
2023-01-06T11:49:45.704Z,99283.42
2023-01-06T11:52:25.244Z,99289.66
2023-01-06T11:55:04.904Z,99298.66
2023-01-06T11:57:43.542Z,99296.27
2023-01-06T12:00:41.463Z,99293.89
2023-01-06T12:03:20.199Z,99293.29
2023-01-06T12:05:58.526Z,99298.83
2023-01-06T12:08:35.203Z,99298.59
2023-01-06T12:11:12.234Z,99300.97
2023-01-06T12:14:08.317Z,99294.19
2023-01-06T12:16:24.046Z,99295.14
2023-01-06T12:18:57.655Z,99305.69
2023-01-06T12:21:33.149Z,99303.83
2023-01-06T12:24:08.858Z,99307.73
2023-01-06T12:26:44.273Z,99313.32
2023-01-06T12:29:21.213Z,99317.41
2023-01-06T12:32:00.227Z,99313.92
2023-01-06T12:34:37.473Z,99309.91
2023-01-06T12:37:17.401Z,99309.17
2023-01-06T12:39:54.491Z,99309.02
2023-01-06T12:42:31.911Z,99313.59
2023-01-06T12:45:08.443Z,99310.93
2023-01-06T12:47:44.568Z,99312.52
2023-01-06T12:50:22.640Z,99320.25
2023-01-06T12:53:01.253Z,99323.73
2023-01-06T12:55:36.826Z,99333.06
2023-01-06T12:58:12.791Z,99332.95
2023-01-06T13:00:51.161Z,99338.87
2023-01-06T13:04:13.470Z,99349.80
2023-01-06T13:07:09.595Z,99357.00
2023-01-06T13:12:42.266Z,99373.60
2023-01-06T13:15:19.527Z,99384.83
2023-01-06T13:17:58.012Z,99397.72
2023-01-06T13:20:34.731Z,99401.30
2023-01-06T13:23:26.449Z,99411.44
2023-01-06T13:26:20.559Z,99414.09
2023-01-06T13:28:58.961Z,99422.94
2023-01-06T13:35:14.923Z,99431.81
2023-01-06T13:37:59.752Z,99434.42
2023-01-06T13:40:35.744Z,99442.25
2023-01-06T13:43:11.203Z,99444.16
2023-01-06T13:45:46.673Z,99445.01
2023-01-06T13:48:22.383Z,99449.23
2023-01-06T13:50:56.763Z,99450.45
2023-01-06T13:53:31.523Z,99453.64
2023-01-06T13:56:27.491Z,99453.25
2023-01-06T13:59:26.159Z,99448.94
2023-01-06T14:02:00.050Z,99455.52
2023-01-06T14:04:50.200Z,99453.08
2023-01-06T14:07:36.575Z,99456.12
2023-01-06T14:10:18.607Z,99461.77
2023-01-06T14:12:51.862Z,99458.80
2023-01-06T14:15:27.878Z,99465.13
2023-01-06T14:18:02.943Z,99470.80
2023-01-06T14:20:38.343Z,99477.46
2023-01-06T14:23:23.893Z,99484.92
2023-01-06T14:25:58.513Z,99493.60
2023-01-06T14:28:34.672Z,99493.13
2023-01-06T14:31:43.262Z,99495.43
2023-01-06T14:34:19.586Z,99492.65
2023-01-06T14:36:56.858Z,99495.25
2023-01-06T14:39:31.294Z,99497.50
2023-01-06T14:42:07.562Z,99503.72
2023-01-06T14:44:44.601Z,99498.02
2023-01-06T14:47:21.714Z,99504.50
2023-01-06T14:49:58.408Z,99497.92
2023-01-06T14:52:35.033Z,99510.82
2023-01-06T14:55:08.514Z,99512.98
2023-01-06T14:57:41.751Z,99517.70
2023-01-06T15:00:20.673Z,99520.09
2023-01-06T15:02:55.899Z,99519.66
2023-01-06T15:05:32.530Z,99516.78
2023-01-06T15:08:08.011Z,99522.04
2023-01-06T15:10:43.723Z,99524.09
2023-01-06T15:13:25.143Z,99521.21
2023-01-06T15:16:01.162Z,99529.34
2023-01-06T15:18:35.280Z,99547.02
2023-01-06T15:21:08.942Z,99540.74
2023-01-06T15:23:45.421Z,99549.09
2023-01-06T15:26:21.413Z,99547.30
2023-01-06T15:29:02.805Z,99550.31
2023-01-06T15:31:39.346Z,99546.07
2023-01-06T15:34:15.630Z,99557.23
2023-01-06T15:36:50.710Z,99557.23
2023-01-06T15:39:28.698Z,99555.28
2023-01-06T15:42:03.239Z,99558.31
2023-01-06T15:44:37.988Z,99552.24
2023-01-06T15:47:22.728Z,99566.03
2023-01-06T15:49:59.750Z,99570.78
2023-01-06T15:52:37.032Z,99566.98
2023-01-06T15:55:21.873Z,99564.34
2023-01-06T15:57:59.846Z,99567.09
2023-01-06T16:00:36.999Z,99565.58
2023-01-06T16:03:16.909Z,99559.50
2023-01-06T16:05:55.397Z,99558.41
2023-01-06T16:08:28.496Z,99576.23
2023-01-06T16:11:47.424Z,99569.75
2023-01-06T16:14:32.019Z,99568.66
2023-01-06T16:17:08.851Z,99576.98
2023-01-06T16:19:48.244Z,99570.87
2023-01-06T16:22:31.402Z,99571.69
2023-01-06T16:25:07.889Z,99573.95
2023-01-06T16:27:39.965Z,99575.28
2023-01-06T16:30:22.074Z,99575.48
2023-01-06T16:32:56.333Z,99578.37
2023-01-06T16:35:31.601Z,99581.55
2023-01-06T16:38:06.363Z,99579.55
2023-01-06T16:40:39.513Z,99588.61
2023-01-06T16:43:12.542Z,99574.63
2023-01-06T16:45:49.323Z,99584.75
2023-01-06T16:48:22.370Z,99582.06
2023-01-06T16:50:56.556Z,99583.45
2023-01-06T16:53:32.597Z,99585.66
2023-01-06T16:56:08.243Z,99588.55
2023-01-06T16:58:42.276Z,99594.08
2023-01-06T17:01:18.252Z,99590.65
2023-01-06T17:03:55.275Z,99585.02
2023-01-06T17:06:30.087Z,99593.88
2023-01-06T17:09:05.475Z,99591.70
2023-01-06T17:11:38.839Z,99596.93
2023-01-06T17:14:16.647Z,99598.93
2023-01-06T17:16:50.810Z,99598.45
2023-01-06T17:19:26.834Z,99596.89
2023-01-06T17:22:03.329Z,99606.56
2023-01-06T17:24:36.309Z,99604.73
2023-01-06T17:27:16.640Z,99607.86
2023-01-06T17:29:50.275Z,99610.67
2023-01-06T17:32:26.310Z,99618.27
2023-01-06T17:35:00.616Z,99626.75
2023-01-06T17:37:35.796Z,99619.52
2023-01-06T17:40:16.189Z,99623.12
2023-01-06T17:42:52.340Z,99629.51
2023-01-06T17:45:27.940Z,99627.34
2023-01-06T17:48:01.177Z,99632.36
2023-01-06T17:50:36.900Z,99629.71
2023-01-06T17:53:34.666Z,99622.95
2023-01-06T17:56:10.736Z,99619.80
2023-01-06T17:58:45.424Z,99622.28
2023-01-06T18:01:23.314Z,99630.56
2023-01-06T18:04:00.311Z,99637.34
2023-01-06T18:06:34.422Z,99629.71
2023-01-06T18:09:15.061Z,99638.67
2023-01-06T18:11:50.851Z,99635.52
2023-01-06T18:14:28.201Z,99639.59
2023-01-06T18:17:03.580Z,99636.20
2023-01-06T18:19:39.151Z,99645.02
2023-01-06T18:22:17.446Z,99644.95
2023-01-06T18:24:54.534Z,99649.09
2023-01-06T18:27:30.172Z,99651.95
2023-01-06T18:30:10.489Z,99656.16
2023-01-06T18:32:46.226Z,99659.95
2023-01-06T18:35:22.117Z,99658.63
2023-01-06T18:37:55.657Z,99654.15
2023-01-06T18:40:29.171Z,99661.45
2023-01-06T18:43:04.664Z,99659.25
2023-01-06T18:45:39.299Z,99659.01
2023-01-06T18:48:17.551Z,99659.48
2023-01-06T18:50:52.781Z,99657.55
2023-01-06T18:53:28.556Z,99654.66
2023-01-06T18:56:04.957Z,99664.57
2023-01-06T18:58:47.632Z,99659.61
2023-01-06T19:01:23.594Z,99661.89
2023-01-06T19:04:03.527Z,99662.19
2023-01-06T19:06:43.483Z,99664.93
2023-01-06T19:09:26.105Z,99662.66
2023-01-06T19:12:03.841Z,99665.81
2023-01-06T19:14:39.751Z,99675.37
2023-01-06T19:17:28.493Z,99676.34
2023-01-06T19:20:04.968Z,99685.17
2023-01-06T19:22:39.723Z,99692.62
2023-01-06T19:25:19.704Z,99693.09
2023-01-06T19:27:55.162Z,99700.98
2023-01-06T19:30:44.025Z,99697.42
2023-01-06T19:33:36.157Z,99696.74
2023-01-06T19:36:44.104Z,99702.11
2023-01-06T19:42:22.296Z,99700.70
2023-01-06T19:44:57.627Z,99702.38
2023-01-06T19:47:35.864Z,99706.65
2023-01-06T19:50:16.611Z,99713.16
2023-01-06T19:52:50.995Z,99702.84
2023-01-06T19:55:26.854Z,99700.36
2023-01-06T19:58:02.394Z,99702.63
2023-01-06T20:00:40.148Z,99693.19
2023-01-06T20:03:20.456Z,99698.81
2023-01-06T20:05:53.530Z,99699.75
2023-01-06T20:08:27.103Z,99697.99
2023-01-06T20:11:01.221Z,99697.33
2023-01-06T20:13:34.397Z,99692.84
2023-01-06T20:16:09.564Z,99694.03
2023-01-06T20:18:42.826Z,99695.20
2023-01-06T20:21:16.420Z,99698.14
2023-01-06T20:23:49.603Z,99711.39
2023-01-06T20:26:22.603Z,99711.84
2023-01-06T20:28:56.015Z,99721.91
2023-01-06T20:31:29.546Z,99731.56
2023-01-06T20:34:02.661Z,99735.84
2023-01-06T20:36:35.917Z,99733.36
2023-01-06T20:39:09.098Z,99734.04
2023-01-06T20:41:42.541Z,99716.50
2023-01-06T20:44:15.757Z,99734.29
2023-01-06T20:46:50.511Z,99730.01
2023-01-06T20:49:23.704Z,99735.42
2023-01-06T20:51:56.858Z,99741.53
2023-01-06T20:54:29.940Z,99743.55
2023-01-06T20:57:03.411Z,99748.70
2023-01-06T20:59:36.563Z,99752.56
2023-01-06T21:02:10.200Z,99756.13
2023-01-06T21:04:43.311Z,99749.41
2023-01-06T21:07:16.726Z,99763.80
2023-01-06T21:09:49.965Z,99761.50
2023-01-06T21:12:23.460Z,99756.55
2023-01-06T21:14:56.459Z,99761.29
2023-01-06T21:17:29.711Z,99762.21
2023-01-06T21:20:03.030Z,99755.92
2023-01-06T21:22:36.682Z,99751.89
2023-01-06T21:25:11.064Z,99761.18
2023-01-06T21:27:45.245Z,99758.03
2023-01-06T21:30:18.937Z,99758.48
2023-01-06T21:32:52.183Z,99761.88
2023-01-06T21:35:25.402Z,99769.97
2023-01-06T21:37:58.589Z,99777.60
2023-01-06T21:40:32.201Z,99776.27
2023-01-06T21:43:11.852Z,99781.64
2023-01-06T21:45:45.945Z,99782.52
2023-01-06T21:48:20.387Z,99782.09
2023-01-06T21:50:53.975Z,99783.44
2023-01-06T21:53:29.367Z,99776.25
2023-01-06T21:56:02.591Z,99783.89
2023-01-06T21:58:36.387Z,99785.23
2023-01-06T22:01:09.930Z,99776.02
2023-01-06T22:03:43.667Z,99782.09
2023-01-06T22:06:18.504Z,99776.72
2023-01-06T22:08:54.753Z,99776.94
2023-01-06T22:11:29.047Z,99777.15
2023-01-06T22:14:03.215Z,99777.15
2023-01-06T22:16:37.332Z,99774.89
2023-01-06T22:19:12.043Z,99779.62
2023-01-06T22:21:45.889Z,99777.60
2023-01-06T22:24:22.282Z,99771.31
2023-01-06T22:26:55.643Z,99776.28
2023-01-06T22:29:28.715Z,99768.19
2023-01-06T22:32:07.872Z,99765.95
2023-01-06T22:34:42.198Z,99772.70
2023-01-06T22:37:15.331Z,99772.70
2023-01-06T22:39:49.273Z,99786.88
2023-01-06T22:42:22.845Z,99783.27
2023-01-06T22:44:56.313Z,99784.85
2023-01-06T22:47:29.426Z,99785.73
2023-01-06T22:50:02.746Z,99780.36
2023-01-06T22:52:36.004Z,99782.37
2023-01-06T22:55:11.027Z,99783.27
2023-01-06T22:57:43.844Z,99770.48
2023-01-06T23:00:19.663Z,99766.88
2023-01-06T23:02:55.496Z,99776.55
2023-01-06T23:05:28.989Z,99769.80
2023-01-06T23:08:01.953Z,99766.45
2023-01-06T23:10:35.746Z,99766.91
2023-01-06T23:13:08.885Z,99738.59
2023-01-06T23:15:43.800Z,99739.48
2023-01-06T23:18:16.878Z,99743.53
2023-01-06T23:20:58.087Z,99734.08
2023-01-06T23:23:32.174Z,99737.47
2023-01-06T23:26:06.829Z,99737.69
2023-01-06T23:28:40.467Z,99739.02
2023-01-06T23:31:15.541Z,99747.57
2023-01-06T23:33:50.201Z,99742.63
2023-01-06T23:36:24.031Z,99742.63
2023-01-06T23:38:58.162Z,99750.05
2023-01-06T23:41:32.967Z,99744.88
2023-01-06T23:44:06.891Z,99750.71
2023-01-06T23:46:41.377Z,99753.85
2023-01-06T23:49:16.326Z,99763.07
2023-01-06T23:51:49.586Z,99764.20
2023-01-06T23:54:22.920Z,99760.59
2023-01-06T23:56:56.104Z,99765.55
2023-01-06T23:59:29.203Z,99769.60
